Time;durP1;ratioP1;P1;durP2;ratioP2;P2;SDS_P1;SDS_P2;PMS_P1;PMS_P2;Temp;Humidity;BMP_temperature;BMP_pressure;BME280_temperature;BME280_humidity;BME280_pressure;Samples;Min_cycle;Max_cycle;Signal;HPM_P1;HPM_P2
2023/01/21 00:00:54;;;;;;;33.20;18.07;;;;;;;;;;5072296;28;20464;-74
2023/01/21 00:03:21;;;;;;;34.37;19.60;;;;;;;;;;5072087;28;20464;-75
2023/01/21 00:05:49;;;;;;;42.60;20.27;;;;;;;;;;5072175;28;20459;-74
2023/01/21 00:08:16;;;;;;;41.70;21.53;;;;;;;;;;5072214;28;20482;-74
2023/01/21 00:10:43;;;;;;;33.27;18.00;;;;;;;;;;5072075;28;20818;-74
2023/01/21 00:13:10;;;;;;;39.53;18.70;;;;;;;;;;5072527;28;20452;-74
2023/01/21 00:15:38;;;;;;;35.93;17.90;;;;;;;;;;5072085;28;20452;-75
2023/01/21 00:18:05;;;;;;;38.10;20.40;;;;;;;;;;5072117;28;21025;-74
2023/01/21 00:20:32;;;;;;;35.10;16.93;;;;;;;;;;5072359;28;20459;-75
2023/01/21 00:23:00;;;;;;;33.77;16.50;;;;;;;;;;5072178;28;20451;-75
2023/01/21 00:25:27;;;;;;;37.17;18.77;;;;;;;;;;5072040;28;20452;-74
2023/01/21 00:27:54;;;;;;;31.07;17.67;;;;;;;;;;5072116;28;20448;-74
2023/01/21 00:30:21;;;;;;;28.63;15.33;;;;;;;;;;5071598;28;20451;-75
2023/01/21 00:32:49;;;;;;;28.93;15.03;;;;;;;;;;5072027;28;20949;-75
2023/01/21 00:35:17;;;;;;;32.73;17.23;;;;;;;;;;5071979;28;20459;-74
2023/01/21 00:37:44;;;;;;;35.57;18.50;;;;;;;;;;5071621;28;21035;-75
2023/01/21 00:40:11;;;;;;;33.03;15.17;;;;;;;;;;5072082;28;20491;-74
2023/01/21 00:42:38;;;;;;;33.57;16.60;;;;;;;;;;5075422;28;20455;-75
2023/01/21 00:45:06;;;;;;;30.70;16.33;;;;;;;;;;5075368;28;20443;-75
2023/01/21 00:47:33;;;;;;;32.77;15.97;;;;;;;;;;5075192;28;20451;-74
2023/01/21 00:50:02;;;;;;;29.97;16.27;;;;;;;;;;5075379;28;20984;-75
2023/01/21 00:52:29;;;;;;;35.00;16.63;;;;;;;;;;5075634;28;20454;-74
2023/01/21 00:54:56;;;;;;;32.10;16.23;;;;;;;;;;5075269;28;20525;-74
2023/01/21 00:57:23;;;;;;;32.30;17.40;;;;;;;;;;5075430;28;21011;-75
2023/01/21 00:59:50;;;;;;;32.07;16.50;;;;;;;;;;5075198;28;20479;-75
2023/01/21 01:02:17;;;;;;;34.17;17.67;;;;;;;;;;5075459;28;20872;-74
2023/01/21 01:04:44;;;;;;;33.10;18.00;;;;;;;;;;5075055;28;20456;-75
2023/01/21 01:07:13;;;;;;;30.37;17.13;;;;;;;;;;5075513;28;20455;-74
2023/01/21 01:09:40;;;;;;;33.77;18.20;;;;;;;;;;5074808;28;20478;-75
2023/01/21 01:12:07;;;;;;;30.10;16.97;;;;;;;;;;5075145;28;20538;-74
2023/01/21 01:14:34;;;;;;;32.37;16.70;;;;;;;;;;5075030;28;20459;-74
2023/01/21 01:17:01;;;;;;;28.83;15.10;;;;;;;;;;5074898;28;20467;-74
2023/01/21 01:19:28;;;;;;;29.07;16.67;;;;;;;;;;5074718;28;20475;-74
2023/01/21 01:21:56;;;;;;;27.83;14.20;;;;;;;;;;5075049;28;20459;-74
2023/01/21 01:24:24;;;;;;;32.97;17.40;;;;;;;;;;5074462;28;20459;-75
2023/01/21 01:26:51;;;;;;;30.27;15.47;;;;;;;;;;5074928;28;20466;-74
2023/01/21 01:29:18;;;;;;;31.43;17.70;;;;;;;;;;5074761;28;20459;-75
2023/01/21 01:31:45;;;;;;;28.07;15.63;;;;;;;;;;5074244;28;20940;-75
2023/01/21 01:34:12;;;;;;;31.87;17.03;;;;;;;;;;5074467;28;20840;-74
2023/01/21 01:36:39;;;;;;;42.23;22.40;;;;;;;;;;5074997;28;20459;-75
2023/01/21 01:39:07;;;;;;;37.20;18.60;;;;;;;;;;5074429;28;21038;-74
2023/01/21 01:41:35;;;;;;;29.07;15.33;;;;;;;;;;5074682;28;20487;-74
2023/01/21 01:44:03;;;;;;;28.10;14.57;;;;;;;;;;5074248;28;20447;-74
2023/01/21 01:46:31;;;;;;;26.80;15.23;;;;;;;;;;5074617;28;20840;-74
2023/01/21 01:49:02;;;;;;;32.63;16.80;;;;;;;;;;5074306;28;20468;-75
2023/01/21 01:51:32;;;;;;;29.70;14.90;;;;;;;;;;5074415;28;20451;-75
2023/01/21 01:53:59;;;;;;;31.07;14.80;;;;;;;;;;5074051;28;20956;-75
2023/01/21 01:56:27;;;;;;;30.80;15.13;;;;;;;;;;5074291;28;20447;-74
2023/01/21 01:58:55;;;;;;;32.13;15.90;;;;;;;;;;5074034;28;20522;-75
2023/01/21 02:01:22;;;;;;;33.60;15.07;;;;;;;;;;5074124;28;20467;-75
2023/01/21 02:03:57;;;;;;;28.63;15.97;;;;;;;;;;5073788;28;20452;-75
2023/01/21 02:06:24;;;;;;;25.97;13.80;;;;;;;;;;5074055;28;20542;-75
2023/01/21 02:08:52;;;;;;;27.57;15.17;;;;;;;;;;5073649;28;20460;-75
2023/01/21 02:11:19;;;;;;;29.30;14.10;;;;;;;;;;5074101;28;20443;-75
2023/01/21 02:13:47;;;;;;;26.97;15.80;;;;;;;;;;5073902;28;20936;-74
2023/01/21 02:16:21;;;;;;;29.97;15.97;;;;;;;;;;5074004;28;20474;-75
2023/01/21 02:18:54;;;;;;;31.30;13.80;;;;;;;;;;5073812;28;20514;-75
2023/01/21 02:21:48;;;;;;;26.30;14.33;;;;;;;;;;5074076;28;20491;-75
2023/01/21 02:24:35;;;;;;;34.20;16.80;;;;;;;;;;5073797;28;20790;-74
2023/01/21 02:27:20;;;;;;;25.90;14.53;;;;;;;;;;5073619;28;20837;-75
2023/01/21 02:29:57;;;;;;;33.23;16.30;;;;;;;;;;5063422;28;21007;-75
2023/01/21 02:32:57;;;;;;;36.00;16.43;;;;;;;;;;5073147;28;20456;-75
2023/01/21 02:35:28;;;;;;;26.00;15.73;;;;;;;;;;5011505;28;20540;-75
2023/01/21 02:37:58;;;;;;;25.77;14.57;;;;;;;;;;5011108;28;20498;-75
2023/01/21 02:40:29;;;;;;;32.60;16.37;;;;;;;;;;5041826;28;20447;-75
2023/01/21 02:43:02;;;;;;;28.53;15.70;;;;;;;;;;5073361;28;20471;-74
2023/01/21 02:45:34;;;;;;;33.07;15.30;;;;;;;;;;5073301;28;20913;-75
2023/01/21 02:48:04;;;;;;;31.50;16.83;;;;;;;;;;5073123;28;20530;-75
2023/01/21 02:50:34;;;;;;;29.80;14.90;;;;;;;;;;5073291;28;20452;-74
2023/01/21 02:53:02;;;;;;;23.30;13.97;;;;;;;;;;5073059;28;20459;-74
2023/01/21 02:55:30;;;;;;;21.00;11.30;;;;;;;;;;5073032;28;20456;-74
2023/01/21 02:57:59;;;;;;;31.80;15.90;;;;;;;;;;5072835;28;20484;-74
2023/01/21 03:00:28;;;;;;;28.73;15.17;;;;;;;;;;5073156;28;20452;-74
2023/01/21 03:03:25;;;;;;;26.73;14.40;;;;;;;;;;5073020;28;20474;-74
2023/01/21 03:06:10;;;;;;;39.07;17.03;;;;;;;;;;5011051;28;20481;-74
2023/01/21 03:08:41;;;;;;;29.80;16.10;;;;;;;;;;5065148;28;21018;-75
2023/01/21 03:11:10;;;;;;;30.23;14.37;;;;;;;;;;5072993;28;20544;-74
2023/01/21 03:19:35;;;;;;;33.00;17.07;;;;;;;;;;5030736;28;21010;-74
2023/01/21 03:22:06;;;;;;;29.40;16.53;;;;;;;;;;5030734;28;20576;-74
2023/01/21 03:24:34;;;;;;;29.73;15.73;;;;;;;;;;5051448;28;20456;-74
2023/01/21 03:27:03;;;;;;;30.63;17.23;;;;;;;;;;5072619;28;20482;-74
2023/01/21 03:29:31;;;;;;;26.83;16.03;;;;;;;;;;5072569;28;20879;-74
2023/01/21 03:32:02;;;;;;;34.17;14.70;;;;;;;;;;5072162;28;20455;-74
2023/01/21 03:34:31;;;;;;;31.90;15.63;;;;;;;;;;5072424;28;20995;-74
2023/01/21 03:37:02;;;;;;;33.23;15.03;;;;;;;;;;5072538;28;20478;-74
2023/01/21 03:39:36;;;;;;;33.37;14.80;;;;;;;;;;5072486;28;20490;-74
2023/01/21 03:42:03;;;;;;;28.23;15.27;;;;;;;;;;5072503;28;20447;-74
2023/01/21 03:44:30;;;;;;;29.70;17.03;;;;;;;;;;5072106;28;20813;-74
2023/01/21 03:47:02;;;;;;;28.70;15.80;;;;;;;;;;5072496;28;20455;-74
2023/01/21 03:49:32;;;;;;;27.50;14.10;;;;;;;;;;5072333;28;20504;-74
2023/01/21 03:52:01;;;;;;;27.60;14.90;;;;;;;;;;5072637;28;20460;-74
2023/01/21 03:54:28;;;;;;;30.80;14.60;;;;;;;;;;5072379;28;20831;-74
2023/01/21 03:56:57;;;;;;;27.97;14.57;;;;;;;;;;5072481;28;21025;-74
2023/01/21 03:59:24;;;;;;;26.73;15.37;;;;;;;;;;5072329;28;20490;-74
2023/01/21 04:01:51;;;;;;;27.30;15.40;;;;;;;;;;5072422;28;20448;-74
2023/01/21 04:04:18;;;;;;;25.30;14.83;;;;;;;;;;5072371;28;20447;-74
2023/01/21 04:06:45;;;;;;;31.90;16.10;;;;;;;;;;5072356;28;20824;-74
2023/01/21 04:09:12;;;;;;;22.60;12.57;;;;;;;;;;5072202;28;20478;-74
2023/01/21 04:11:39;;;;;;;28.37;14.70;;;;;;;;;;5072421;28;20448;-74
2023/01/21 04:14:08;;;;;;;36.10;15.70;;;;;;;;;;5072116;28;20971;-74
2023/01/21 04:16:35;;;;;;;27.03;14.70;;;;;;;;;;5074137;28;20455;-74
2023/01/21 04:19:02;;;;;;;32.40;15.00;;;;;;;;;;5075481;28;20494;-74
2023/01/21 04:21:29;;;;;;;26.50;14.77;;;;;;;;;;5076126;28;20440;-74
2023/01/21 04:23:56;;;;;;;26.23;15.50;;;;;;;;;;5075816;28;20948;-74
2023/01/21 04:26:23;;;;;;;32.23;16.20;;;;;;;;;;5076079;28;20475;-75
2023/01/21 04:28:50;;;;;;;29.83;14.73;;;;;;;;;;5075719;28;20471;-74
2023/01/21 04:31:19;;;;;;;27.00;15.03;;;;;;;;;;5075989;28;20459;-74
2023/01/21 04:33:46;;;;;;;29.20;13.00;;;;;;;;;;5075536;28;20468;-74
2023/01/21 04:36:13;;;;;;;28.07;15.53;;;;;;;;;;5075857;28;20451;-74
2023/01/21 04:38:40;;;;;;;23.23;13.87;;;;;;;;;;5075655;28;21045;-74
2023/01/21 04:41:07;;;;;;;20.80;12.83;;;;;;;;;;5075595;28;20459;-74
2023/01/21 04:43:34;;;;;;;26.20;13.73;;;;;;;;;;5075570;28;20455;-74
2023/01/21 04:46:01;;;;;;;20.90;13.93;;;;;;;;;;5075588;28;20462;-74
2023/01/21 04:48:30;;;;;;;25.73;13.67;;;;;;;;;;5075488;28;20478;-74
2023/01/21 04:50:57;;;;;;;29.37;13.33;;;;;;;;;;5075506;28;20443;-74
2023/01/21 04:53:24;;;;;;;23.07;14.70;;;;;;;;;;5075547;28;20447;-74
2023/01/21 04:55:51;;;;;;;26.93;13.30;;;;;;;;;;5075138;28;20458;-74
2023/01/21 04:58:18;;;;;;;25.17;14.50;;;;;;;;;;5075444;28;20475;-74
2023/01/21 05:00:46;;;;;;;23.63;11.37;;;;;;;;;;5075360;28;20452;-74
2023/01/21 05:03:13;;;;;;;24.23;12.73;;;;;;;;;;5075283;28;20800;-74
2023/01/21 05:05:41;;;;;;;33.37;14.97;;;;;;;;;;5075062;28;20451;-74
2023/01/21 05:08:08;;;;;;;26.37;13.83;;;;;;;;;;5075103;28;20799;-74
2023/01/21 05:10:35;;;;;;;37.33;14.23;;;;;;;;;;5075082;28;20470;-73
2023/01/21 05:13:02;;;;;;;26.13;12.57;;;;;;;;;;5075161;28;20454;-74
2023/01/21 05:15:29;;;;;;;24.13;10.03;;;;;;;;;;5074955;28;20461;-74
2023/01/21 05:17:57;;;;;;;20.77;12.63;;;;;;;;;;5074933;28;20454;-74
2023/01/21 05:20:24;;;;;;;27.07;13.60;;;;;;;;;;5075059;28;20492;-74
2023/01/21 05:22:52;;;;;;;26.70;13.60;;;;;;;;;;5074896;28;20920;-74
2023/01/21 05:25:19;;;;;;;22.60;11.47;;;;;;;;;;5074791;28;20463;-74
2023/01/21 05:27:51;;;;;;;20.60;13.97;;;;;;;;;;5074462;28;20462;-74
2023/01/21 05:30:18;;;;;;;25.70;11.83;;;;;;;;;;5074829;28;20979;-74
2023/01/21 05:32:45;;;;;;;25.30;12.27;;;;;;;;;;5074636;28;20949;-74
2023/01/21 05:35:12;;;;;;;27.33;12.23;;;;;;;;;;5074781;28;20813;-74
2023/01/21 05:37:39;;;;;;;25.50;14.00;;;;;;;;;;5074332;28;20818;-74
2023/01/21 05:40:09;;;;;;;18.93;12.30;;;;;;;;;;5074560;28;20509;-74
2023/01/21 05:42:36;;;;;;;23.80;11.60;;;;;;;;;;5074559;28;20456;-74
2023/01/21 05:45:03;;;;;;;23.83;13.87;;;;;;;;;;5074294;28;20466;-74
2023/01/21 05:47:30;;;;;;;23.70;14.33;;;;;;;;;;5074687;28;20462;-74
2023/01/21 05:49:57;;;;;;;24.13;12.20;;;;;;;;;;5074409;28;20479;-74
2023/01/21 05:52:24;;;;;;;25.20;13.40;;;;;;;;;;5074474;28;20451;-74
2023/01/21 05:54:51;;;;;;;21.80;11.07;;;;;;;;;;5074169;28;20937;-75
2023/01/21 05:57:20;;;;;;;20.47;11.50;;;;;;;;;;5074425;28;20944;-74
2023/01/21 05:59:47;;;;;;;24.37;13.33;;;;;;;;;;5074154;28;20502;-74
2023/01/21 06:02:14;;;;;;;25.27;12.77;;;;;;;;;;5074364;28;20447;-75
2023/01/21 06:04:41;;;;;;;24.80;11.83;;;;;;;;;;5073936;28;20456;-74
2023/01/21 06:07:08;;;;;;;26.43;11.57;;;;;;;;;;5074237;28;20459;-74
2023/01/21 06:09:35;;;;;;;26.83;14.30;;;;;;;;;;5073355;28;20479;-74
2023/01/21 06:12:02;;;;;;;23.97;12.37;;;;;;;;;;5073986;28;20941;-75
2023/01/21 06:14:31;;;;;;;23.27;12.30;;;;;;;;;;5073960;28;20474;-74
2023/01/21 06:16:58;;;;;;;17.77;10.83;;;;;;;;;;5073838;28;20460;-74
2023/01/21 06:19:25;;;;;;;22.80;12.20;;;;;;;;;;5073343;28;21008;-74
2023/01/21 06:21:52;;;;;;;20.80;11.67;;;;;;;;;;5073974;28;20459;-74
2023/01/21 06:24:19;;;;;;;25.23;12.97;;;;;;;;;;5073783;28;20451;-74
2023/01/21 06:26:46;;;;;;;23.30;13.43;;;;;;;;;;5073730;28;20462;-74
2023/01/21 06:29:13;;;;;;;27.40;14.13;;;;;;;;;;5073658;28;20474;-74
2023/01/21 06:31:42;;;;;;;23.20;13.70;;;;;;;;;;5073153;28;20455;-74
2023/01/21 06:34:11;;;;;;;22.73;12.30;;;;;;;;;;5073349;28;20968;-74
2023/01/21 06:36:39;;;;;;;23.77;12.80;;;;;;;;;;5073546;28;20456;-74
2023/01/21 06:39:08;;;;;;;22.97;12.27;;;;;;;;;;5072816;28;20495;-74
2023/01/21 06:41:35;;;;;;;19.90;12.73;;;;;;;;;;5073689;28;20863;-74
2023/01/21 06:44:02;;;;;;;25.77;12.23;;;;;;;;;;5073292;28;20456;-74
2023/01/21 06:46:29;;;;;;;20.37;11.83;;;;;;;;;;5073529;28;20952;-74
2023/01/21 06:48:58;;;;;;;32.60;16.77;;;;;;;;;;5072913;28;20831;-74
2023/01/21 06:51:25;;;;;;;23.03;12.00;;;;;;;;;;5073375;28;20459;-74
2023/01/21 06:53:52;;;;;;;22.67;12.17;;;;;;;;;;5073062;28;20475;-74
2023/01/21 06:56:19;;;;;;;25.17;10.63;;;;;;;;;;5073355;28;20467;-74
2023/01/21 06:58:46;;;;;;;25.03;12.67;;;;;;;;;;5072368;28;20484;-74
2023/01/21 07:01:14;;;;;;;18.47;10.80;;;;;;;;;;5072973;28;20452;-75
2023/01/21 07:03:41;;;;;;;23.10;12.97;;;;;;;;;;5092817;28;20482;-74
2023/01/21 07:06:09;;;;;;;26.80;14.13;;;;;;;;;;5093182;28;20450;-74
2023/01/21 07:08:36;;;;;;;23.00;12.23;;;;;;;;;;5093068;28;20477;-74
2023/01/21 07:11:04;;;;;;;21.43;12.00;;;;;;;;;;5092389;28;20443;-74
2023/01/21 07:13:31;;;;;;;23.80;11.17;;;;;;;;;;5092767;28;20951;-74
2023/01/21 07:16:01;;;;;;;25.27;13.17;;;;;;;;;;5092895;28;20966;-74
2023/01/21 07:18:28;;;;;;;24.17;12.40;;;;;;;;;;5093311;28;20466;-74
2023/01/21 07:20:55;;;;;;;21.00;11.40;;;;;;;;;;5092738;28;20854;-73
2023/01/21 07:23:23;;;;;;;20.47;12.00;;;;;;;;;;5092834;28;20459;-74
2023/01/21 07:25:51;;;;;;;27.93;14.13;;;;;;;;;;5092553;28;20975;-73
2023/01/21 07:28:18;;;;;;;24.03;13.50;;;;;;;;;;5092607;28;20544;-73
2023/01/21 07:30:45;;;;;;;28.07;13.70;;;;;;;;;;5092490;28;20457;-73
2023/01/21 07:33:12;;;;;;;18.97;11.53;;;;;;;;;;5092288;28;20459;-73
2023/01/21 07:35:39;;;;;;;20.10;11.57;;;;;;;;;;5092824;28;20466;-73
2023/01/21 07:38:07;;;;;;;16.03;11.00;;;;;;;;;;5092603;28;20454;-73
2023/01/21 07:40:35;;;;;;;20.00;11.00;;;;;;;;;;5092776;28;21072;-73
2023/01/21 07:43:03;;;;;;;20.97;11.03;;;;;;;;;;5092582;28;20451;-73
2023/01/21 07:45:30;;;;;;;28.00;12.60;;;;;;;;;;5092573;28;20446;-74
2023/01/21 07:47:57;;;;;;;17.97;10.40;;;;;;;;;;5092446;28;20451;-74
2023/01/21 07:50:25;;;;;;;26.17;12.57;;;;;;;;;;5094308;28;20943;-73
2023/01/21 07:52:53;;;;;;;23.73;14.67;;;;;;;;;;5096716;28;20466;-74
2023/01/21 07:55:20;;;;;;;28.43;11.87;;;;;;;;;;5096718;28;20970;-73
2023/01/21 07:57:49;;;;;;;27.57;13.83;;;;;;;;;;5096989;28;20446;-74
2023/01/21 08:00:16;;;;;;;18.17;11.13;;;;;;;;;;5096492;28;20490;-74
2023/01/21 08:02:44;;;;;;;19.80;12.03;;;;;;;;;;5096301;28;20446;-74
2023/01/21 08:05:11;;;;;;;20.40;10.23;;;;;;;;;;5096483;28;20461;-74
2023/01/21 08:07:38;;;;;;;22.00;11.70;;;;;;;;;;5096394;28;20951;-75
2023/01/21 08:10:05;;;;;;;21.63;11.87;;;;;;;;;;5095874;28;20522;-73
2023/01/21 08:12:32;;;;;;;24.13;11.40;;;;;;;;;;5096021;28;20455;-74
2023/01/21 08:15:01;;;;;;;20.03;12.00;;;;;;;;;;5096066;28;20831;-74
2023/01/21 08:17:28;;;;;;;23.93;13.20;;;;;;;;;;5096415;28;20456;-74
2023/01/21 08:19:56;;;;;;;22.93;12.50;;;;;;;;;;5095973;28;20490;-74
2023/01/21 08:22:24;;;;;;;20.07;10.77;;;;;;;;;;5096340;28;20865;-74
2023/01/21 08:24:51;;;;;;;28.00;12.63;;;;;;;;;;5095926;28;20504;-73
2023/01/21 08:27:18;;;;;;;24.60;12.70;;;;;;;;;;5096093;28;20454;-74
2023/01/21 08:29:47;;;;;;;19.87;11.90;;;;;;;;;;5095959;28;20465;-74
2023/01/21 08:32:15;;;;;;;19.20;11.17;;;;;;;;;;5095649;28;20457;-74
2023/01/21 08:34:43;;;;;;;24.93;12.20;;;;;;;;;;5094990;28;20966;-73
2023/01/21 08:37:10;;;;;;;23.13;12.23;;;;;;;;;;5095649;28;20446;-74
2023/01/21 08:39:37;;;;;;;20.50;12.03;;;;;;;;;;5095421;28;20486;-73
2023/01/21 08:42:04;;;;;;;39.67;14.70;;;;;;;;;;5095703;28;20966;-73
2023/01/21 08:44:34;;;;;;;20.63;12.10;;;;;;;;;;5095486;28;20452;-73
2023/01/21 08:47:01;;;;;;;17.33;11.07;;;;;;;;;;5095689;28;20874;-74
2023/01/21 08:49:29;;;;;;;20.90;11.43;;;;;;;;;;5094874;28;20470;-74
2023/01/21 08:51:56;;;;;;;22.03;11.03;;;;;;;;;;5095117;28;20458;-74
2023/01/21 08:54:24;;;;;;;19.53;10.37;;;;;;;;;;5094908;28;20458;-74
2023/01/21 08:56:51;;;;;;;23.17;12.30;;;;;;;;;;5094818;28;20467;-74
2023/01/21 08:59:20;;;;;;;16.37;9.80;;;;;;;;;;5095309;28;20466;-75
2023/01/21 09:01:47;;;;;;;18.60;11.03;;;;;;;;;;5094623;28;20457;-74
2023/01/21 09:04:14;;;;;;;22.83;11.40;;;;;;;;;;5095282;28;20446;-73
2023/01/21 09:06:43;;;;;;;27.23;13.80;;;;;;;;;;5095431;28;20454;-73
2023/01/21 09:09:11;;;;;;;25.87;13.40;;;;;;;;;;5095187;28;20477;-74
2023/01/21 09:11:39;;;;;;;21.93;12.83;;;;;;;;;;5095118;28;20951;-73
2023/01/21 09:14:06;;;;;;;22.90;12.03;;;;;;;;;;5095042;28;20450;-74
2023/01/21 09:16:35;;;;;;;21.80;11.13;;;;;;;;;;5095214;28;20971;-74
2023/01/21 09:19:02;;;;;;;22.93;13.30;;;;;;;;;;5094598;28;20466;-74
2023/01/21 09:21:29;;;;;;;22.23;11.83;;;;;;;;;;5095164;28;20491;-74
2023/01/21 09:23:58;;;;;;;16.67;10.77;;;;;;;;;;5094924;28;20455;-74
2023/01/21 09:26:25;;;;;;;30.03;13.20;;;;;;;;;;5095423;28;20981;-74
2023/01/21 09:28:53;;;;;;;27.07;17.50;;;;;;;;;;5094397;28;20471;-74
2023/01/21 09:31:22;;;;;;;23.97;14.40;;;;;;;;;;5094577;28;20450;-74
2023/01/21 09:33:50;;;;;;;26.03;12.67;;;;;;;;;;5094235;28;20955;-74
2023/01/21 09:36:18;;;;;;;18.07;11.10;;;;;;;;;;5094958;28;20453;-74
2023/01/21 09:38:46;;;;;;;21.57;12.50;;;;;;;;;;5094981;28;20895;-73
2023/01/21 09:41:22;;;;;;;19.60;12.87;;;;;;;;;;5094682;28;20486;-74
2023/01/21 09:43:52;;;;;;;17.83;10.67;;;;;;;;;;5094662;28;20451;-74
2023/01/21 09:46:24;;;;;;;23.23;12.97;;;;;;;;;;5094877;28;20544;-74
2023/01/21 09:48:52;;;;;;;18.13;10.07;;;;;;;;;;5094713;28;20482;-73
2023/01/21 09:51:21;;;;;;;20.50;11.67;;;;;;;;;;5094909;28;20430;-74
2023/01/21 09:53:50;;;;;;;21.50;11.60;;;;;;;;;;5094490;28;20462;-74
2023/01/21 09:56:22;;;;;;;15.87;10.73;;;;;;;;;;5094294;28;20504;-73
2023/01/21 09:58:51;;;;;;;19.67;11.57;;;;;;;;;;5094227;28;20482;-74
2023/01/21 10:01:20;;;;;;;18.90;11.17;;;;;;;;;;5094132;28;20490;-74
2023/01/21 10:03:50;;;;;;;20.10;10.90;;;;;;;;;;5093141;28;20438;-74
2023/01/21 10:06:23;;;;;;;22.53;12.00;;;;;;;;;;5094459;28;20935;-74
2023/01/21 10:09:00;;;;;;;18.80;11.53;;;;;;;;;;5094153;28;20891;-74
2023/01/21 10:11:36;;;;;;;26.97;12.07;;;;;;;;;;5093875;28;20461;-74
2023/01/21 10:14:23;;;;;;;24.37;15.03;;;;;;;;;;5093352;28;20450;-74
2023/01/21 10:16:55;;;;;;;20.73;12.37;;;;;;;;;;5094226;28;20454;-75
2023/01/21 10:19:27;;;;;;;26.30;14.90;;;;;;;;;;5094217;28;20471;-74
2023/01/21 10:21:56;;;;;;;20.67;12.00;;;;;;;;;;5093919;28;20555;-74
2023/01/21 10:24:26;;;;;;;20.23;11.30;;;;;;;;;;5093940;28;20454;-74
2023/01/21 10:26:54;;;;;;;22.83;13.80;;;;;;;;;;5094115;28;20447;-74
2023/01/21 10:29:23;;;;;;;19.30;12.63;;;;;;;;;;5093986;28;20470;-74
2023/01/21 10:31:51;;;;;;;23.43;11.80;;;;;;;;;;5090777;28;20450;-75
2023/01/21 10:34:19;;;;;;;25.73;16.33;;;;;;;;;;5090676;28;20464;-74
2023/01/21 10:36:54;;;;;;;30.83;14.43;;;;;;;;;;5091892;28;20451;-75
2023/01/21 10:39:25;;;;;;;39.03;13.40;;;;;;;;;;5091902;28;20481;-74
2023/01/21 10:42:02;;;;;;;20.60;12.63;;;;;;;;;;5090629;28;20486;-75
2023/01/21 10:44:35;;;;;;;24.53;12.97;;;;;;;;;;5092082;28;20466;-74
2023/01/21 10:47:07;;;;;;;17.53;10.07;;;;;;;;;;5092037;28;20791;-74
2023/01/21 10:49:42;;;;;;;21.97;12.17;;;;;;;;;;5092074;28;20474;-74
2023/01/21 10:52:12;;;;;;;22.67;12.70;;;;;;;;;;5092101;28;20484;-74
2023/01/21 10:54:45;;;;;;;22.23;11.70;;;;;;;;;;5091761;28;20451;-74
2023/01/21 10:57:22;;;;;;;19.33;10.77;;;;;;;;;;5091966;28;20474;-74
2023/01/21 10:59:50;;;;;;;24.67;11.40;;;;;;;;;;5091764;28;20844;-74
2023/01/21 11:02:21;;;;;;;25.03;11.43;;;;;;;;;;5091605;28;20552;-74
2023/01/21 11:04:48;;;;;;;17.97;11.20;;;;;;;;;;5091740;28;20450;-74
2023/01/21 11:07:18;;;;;;;21.17;11.40;;;;;;;;;;5091936;28;20458;-73
2023/01/21 11:09:46;;;;;;;16.10;11.50;;;;;;;;;;5091619;28;20470;-75
2023/01/21 11:12:17;;;;;;;16.70;11.00;;;;;;;;;;5091540;28;20498;-74
2023/01/21 11:14:47;;;;;;;21.83;11.07;;;;;;;;;;5091842;28;20931;-74
2023/01/21 11:17:14;;;;;;;19.67;10.80;;;;;;;;;;5091980;28;20809;-74
2023/01/21 11:19:41;;;;;;;17.87;10.83;;;;;;;;;;5091751;28;20472;-74
2023/01/21 11:22:20;;;;;;;26.33;11.47;;;;;;;;;;5091641;28;20925;-75
2023/01/21 11:24:48;;;;;;;20.30;12.80;;;;;;;;;;5091192;28;20460;-74
2023/01/21 11:27:21;;;;;;;19.37;11.03;;;;;;;;;;5091000;28;20455;-75
2023/01/21 11:29:49;;;;;;;15.93;9.27;;;;;;;;;;5091299;28;20481;-74
2023/01/21 11:32:18;;;;;;;20.03;11.33;;;;;;;;;;5075062;28;20452;-74
2023/01/21 11:34:46;;;;;;;16.20;10.80;;;;;;;;;;5072199;28;20956;-74
2023/01/21 11:37:21;;;;;;;18.67;10.60;;;;;;;;;;5071858;28;20466;-74
2023/01/21 11:39:51;;;;;;;21.47;11.00;;;;;;;;;;5072569;28;20479;-74
2023/01/21 11:42:19;;;;;;;16.20;9.97;;;;;;;;;;5072692;28;20490;-74
2023/01/21 11:44:52;;;;;;;22.80;14.60;;;;;;;;;;5072369;28;20945;-74
2023/01/21 11:47:28;;;;;;;25.70;18.10;;;;;;;;;;5072559;28;20459;-74
2023/01/21 11:49:55;;;;;;;17.07;9.63;;;;;;;;;;5072383;28;20481;-73
2023/01/21 11:52:22;;;;;;;18.53;9.63;;;;;;;;;;5072566;28;20447;-74
2023/01/21 11:54:49;;;;;;;19.57;13.13;;;;;;;;;;5072387;28;20862;-74
2023/01/21 11:57:25;;;;;;;21.80;12.70;;;;;;;;;;5072309;28;20827;-74
2023/01/21 11:59:55;;;;;;;16.87;10.87;;;;;;;;;;5072160;28;20845;-74
2023/01/21 12:02:24;;;;;;;19.77;11.20;;;;;;;;;;5072711;28;20484;-74
2023/01/21 12:04:54;;;;;;;20.70;10.37;;;;;;;;;;5071534;28;20448;-73
2023/01/21 12:07:22;;;;;;;18.03;10.60;;;;;;;;;;5071912;28;20527;-74
2023/01/21 12:09:50;;;;;;;17.17;10.40;;;;;;;;;;5072064;28;20471;-73
2023/01/21 12:12:31;;;;;;;20.43;11.37;;;;;;;;;;5071868;28;20454;-74
2023/01/21 12:15:03;;;;;;;17.33;11.77;;;;;;;;;;5072349;28;20832;-73
2023/01/21 12:17:34;;;;;;;21.70;10.53;;;;;;;;;;5072369;28;20444;-74
2023/01/21 12:20:11;;;;;;;19.30;10.30;;;;;;;;;;5072087;28;20482;-74
2023/01/21 12:22:46;;;;;;;15.40;9.20;;;;;;;;;;5072261;28;20523;-74
2023/01/21 12:25:20;;;;;;;17.97;12.17;;;;;;;;;;5072037;28;20454;-74
2023/01/21 12:27:52;;;;;;;19.30;10.97;;;;;;;;;;5072070;28;20460;-74
2023/01/21 12:30:25;;;;;;;21.10;12.20;;;;;;;;;;5071810;28;20494;-74
2023/01/21 12:32:55;;;;;;;23.43;11.10;;;;;;;;;;5071977;28;20451;-74
2023/01/21 12:35:27;;;;;;;19.70;9.80;;;;;;;;;;5072040;28;20448;-75
2023/01/21 12:37:56;;;;;;;15.77;10.27;;;;;;;;;;5073768;28;20455;-74
2023/01/21 12:40:26;;;;;;;15.67;9.83;;;;;;;;;;5075786;28;20463;-75
2023/01/21 12:42:54;;;;;;;22.33;13.47;;;;;;;;;;5074526;28;21030;-74
2023/01/21 12:45:25;;;;;;;38.00;22.73;;;;;;;;;;5071793;28;20472;-75
2023/01/21 12:47:55;;;;;;;24.77;14.60;;;;;;;;;;5073711;28;20436;-75
2023/01/21 12:50:24;;;;;;;26.97;14.97;;;;;;;;;;5082365;28;20450;-75
2023/01/21 12:53:06;;;;;;;33.23;18.97;;;;;;;;;;5094404;28;20460;-75
2023/01/21 12:55:40;;;;;;;19.90;10.30;;;;;;;;;;5094313;28;20454;-75
2023/01/21 12:58:11;;;;;;;18.87;12.27;;;;;;;;;;5093658;28;20462;-76
2023/01/21 13:00:40;;;;;;;17.27;10.53;;;;;;;;;;5094341;28;20450;-75
2023/01/21 13:03:15;;;;;;;19.20;9.30;;;;;;;;;;5094315;28;20446;-75
2023/01/21 13:05:48;;;;;;;15.60;9.17;;;;;;;;;;5093965;28;20442;-75
2023/01/21 13:08:30;;;;;;;17.43;9.50;;;;;;;;;;5094139;28;20450;-75
2023/01/21 13:11:00;;;;;;;14.90;9.07;;;;;;;;;;5081359;28;20506;-74
2023/01/21 13:13:30;;;;;;;14.33;8.77;;;;;;;;;;5093839;28;20940;-75
2023/01/21 13:16:00;;;;;;;14.90;8.03;;;;;;;;;;5093737;28;20450;-74
2023/01/21 13:18:31;;;;;;;12.20;8.50;;;;;;;;;;5094100;28;21008;-74
2023/01/21 13:21:01;;;;;;;15.43;9.80;;;;;;;;;;5093941;28;20447;-74
2023/01/21 13:23:32;;;;;;;13.83;10.67;;;;;;;;;;5093457;28;20454;-75
2023/01/21 13:26:02;;;;;;;16.10;11.83;;;;;;;;;;5093259;28;20462;-74
2023/01/21 13:28:32;;;;;;;15.27;8.90;;;;;;;;;;5091327;28;20479;-73
2023/01/21 13:31:03;;;;;;;19.00;10.10;;;;;;;;;;5072656;28;20451;-73
2023/01/21 13:33:34;;;;;;;21.43;10.57;;;;;;;;;;5075572;28;20458;-74
2023/01/21 13:36:07;;;;;;;15.60;8.70;;;;;;;;;;5094172;28;20549;-73
2023/01/21 13:38:36;;;;;;;19.67;9.53;;;;;;;;;;5094534;28;20467;-74
2023/01/21 13:41:12;;;;;;;19.10;10.60;;;;;;;;;;5094576;28;20962;-74
2023/01/21 13:43:53;;;;;;;16.60;9.67;;;;;;;;;;5094732;28;20450;-73
2023/01/21 13:46:26;;;;;;;20.20;8.43;;;;;;;;;;5094817;28;21004;-74
2023/01/21 13:49:04;;;;;;;18.03;10.00;;;;;;;;;;5094258;28;20482;-74
2023/01/21 13:51:37;;;;;;;22.03;9.30;;;;;;;;;;5094718;28;20451;-74
2023/01/21 13:54:12;;;;;;;13.90;8.13;;;;;;;;;;5093654;28;20458;-73
2023/01/21 13:56:45;;;;;;;18.27;10.90;;;;;;;;;;5094360;28;20446;-73
2023/01/21 13:59:14;;;;;;;18.77;11.10;;;;;;;;;;5093962;28;20499;-73
2023/01/21 14:01:45;;;;;;;20.90;10.87;;;;;;;;;;5094212;28;21010;-73
2023/01/21 14:04:13;;;;;;;25.63;10.87;;;;;;;;;;5094420;28;20959;-73
2023/01/21 14:06:42;;;;;;;18.70;9.97;;;;;;;;;;5094303;28;20454;-73
2023/01/21 14:09:14;;;;;;;15.07;9.50;;;;;;;;;;5094170;28;20470;-72
2023/01/21 14:11:43;;;;;;;15.77;10.63;;;;;;;;;;5094395;28;20458;-72
2023/01/21 14:14:19;;;;;;;16.17;8.83;;;;;;;;;;5094124;28;20446;-72
2023/01/21 14:17:03;;;;;;;15.90;7.77;;;;;;;;;;5094065;28;20450;-72
2023/01/21 14:19:54;;;;;;;17.60;11.37;;;;;;;;;;5094115;28;20475;-72
2023/01/21 14:22:28;;;;;;;14.07;8.40;;;;;;;;;;5036985;28;20492;-73
2023/01/21 14:25:04;;;;;;;20.07;10.13;;;;;;;;;;5093697;28;20454;-73
2023/01/21 14:27:37;;;;;;;13.23;8.33;;;;;;;;;;5093713;28;20461;-73
2023/01/21 14:30:07;;;;;;;14.93;9.90;;;;;;;;;;5093375;28;20478;-73
2023/01/21 14:32:37;;;;;;;14.37;8.20;;;;;;;;;;5093558;28;20563;-73
2023/01/21 14:35:12;;;;;;;22.73;11.67;;;;;;;;;;5093591;28;20462;-72
2023/01/21 14:37:41;;;;;;;18.33;8.67;;;;;;;;;;5093727;28;20460;-72